• Join FlightAware (Why Join?)
  • Login
  • US Flag 
05:26AM EST


 

Airport Tracker/Info


-or-


 

Live Flight TrackerFlight Track Log ✈ FIN666 ✈ 12-Nov-2013 ✈ EKCH / CPH - EFHK / HEL

Flight Track Log - Related Links

Times and Time Zones

All times are in EST time to prevent confusion due to time zone crossing. See the FIN666 flight status page for this flight to view local times or setup timezone preferences in your user account.

Time Position Orientation Groundspeed Altitude Reporting Facility
EST Latitude Longitude Course Direction KTS MPH feet Rate Location/Type
07:21AM 55.8592 13.1550 49° Northeast  Level Estimated
07:22AM 55.9392 13.3227 50° Northeast  Level Estimated
07:23AM 56.0189 13.4911 50° Northeast  Level Estimated
07:24AM 56.0985 13.6603 50° Northeast  Level Estimated
07:25AM 56.1777 13.8301 50° Northeast  Level Estimated
07:26AM 56.2568 14.0006 50° Northeast  Level Estimated
07:27AM 56.3368 14.1745 50° Northeast  Level Estimated
07:28AM 56.4166 14.3491 50° Northeast  Level Estimated
07:29AM 56.4962 14.5245 51° Northeast  Level Estimated
07:30AM 56.5755 14.7006 51° Northeast  Level Estimated
07:31AM 56.6546 14.8774 51° Northeast  Level Estimated
07:32AM 56.7334 15.0550 51° Northeast  Level Estimated
07:33AM 56.8119 15.2333 51° Northeast  Level Estimated
07:34AM 56.8902 15.4124 51° Northeast  Level Estimated
07:35AM 56.9695 15.5951 51° Northeast  Level Estimated
07:36AM 57.0485 15.7785 52° Northeast  Level Estimated
07:37AM 57.1273 15.9628 52° Northeast  Level Estimated
07:38AM 57.2057 16.1478 52° Northeast  Level Estimated
07:39AM 57.2839 16.3336 52° Northeast  Level Estimated
07:40AM 57.3619 16.5202 52° Northeast  Level Estimated
07:41AM 57.4395 16.7076 52° Northeast  Level Estimated
07:42AM 57.5169 16.8958 53° Northeast  Level Estimated
07:43AM 57.5940 17.0848 53° Northeast  Level Estimated
07:44AM 57.6708 17.2746 53° Northeast  Level Estimated
07:45AM 57.7473 17.4652 53° Northeast  Level Estimated
07:46AM 57.8235 17.6565 53° Northeast  Level Estimated
07:47AM 57.8995 17.8488 53° Northeast  Level Estimated
07:48AM 57.9751 18.0418 53° Northeast  Level Estimated
07:49AM 58.0505 18.2356 54° Northeast  Level Estimated
07:50AM 58.1255 18.4303 54° Northeast  Level Estimated
07:51AM 58.2003 18.6258 54° Northeast  Level Estimated
07:52AM 58.2747 18.8221 54° Northeast  Level Estimated
07:53AM 58.3489 19.0192 54° Northeast  Level Estimated
07:54AM 58.4227 19.2171 54° Northeast  Level Estimated
07:55AM 58.4963 19.4159 55° Northeast  Level Estimated
07:56AM 58.5695 19.6155 55° Northeast  Level Estimated
07:57AM 58.6425 19.8160 55° Northeast  Level Estimated
07:58AM 58.7151 20.0173 55° Northeast  Level Estimated
07:59AM 58.7874 20.2194 55° Northeast  Level Estimated
08:00AM 58.8594 20.4224 55° Northeast  Level Estimated
08:01AM 58.9310 20.6262 56° Northeast  Level Estimated
08:02AM 59.0024 20.8308 56° Northeast  Level Estimated
08:03AM 59.0734 21.0364 56° Northeast  Level Estimated
08:04AM 59.1441 21.2427 56° Northeast  Level Estimated
08:05AM 59.2144 21.4499 56° Northeast  Level Estimated
08:06AM 59.2845 21.6580 57° Northeast  Level Estimated
08:07AM 59.3542 21.8669 57° Northeast  Level Estimated
08:08AM 59.4235 22.0767 57° Northeast  Level Estimated
08:09AM 59.4926 22.2873 57° Northeast  Level Estimated
08:10AM 59.5612 22.4988 57° Northeast  Level Estimated
08:11AM 59.6296 22.7112 57° Northeast  Level Estimated
08:12AM 59.6976 22.9244 58° Northeast  Level Estimated
08:13AM 59.7652 23.1385 58° Northeast  Level Estimated
08:14AM 59.8325 23.3534 58° Northeast  Level Estimated
08:15AM 59.8995 23.5693 58° Northeast  Level Estimated
08:16AM 59.9661 23.7859 58° Northeast  Level Estimated
08:17AM 60.0323 24.0035 59° Northeast  Level Estimated
08:18AM 60.0982 24.2219 59° Northeast  Level Estimated
08:19AM 60.1637 24.4412 59° Northeast  Level Estimated
08:20AM 60.2289 24.6614 59° Northeast  Level Estimated
08:21AM 60.2937 24.8825 59° Northeast  Level Estimated
08:22AM 60.3172 24.9633 60° Northeast  Level Estimated
08:23AM 60.3172 24.9633 37° Northeast  Level Estimated
08:24AM 60.3172 24.9633 37° Northeast  Level Estimated
08:25AM 60.3172 24.9633 37° Northeast  Level Estimated
08:26AM 60.3172 24.9633 37° Northeast  Level Estimated
08:27AM 60.3172 24.9633 37° Northeast  Level Estimated
08:28AM 60.3172 24.9633 37° Northeast  Level Estimated
08:29AM 60.3172 24.9633 37° Northeast  Level Estimated
08:30AM 60.3172 24.9633 37° Northeast  Level Estimated
08:31AM 60.3172 24.9633 37° Northeast  Level Estimated
08:32AM 60.3172 24.9633 37° Northeast  Level Estimated
08:33AM 60.3172 24.9633 37° Northeast  Level Estimated
08:34AM 60.3172 24.9633 37° Northeast  Level Estimated
08:35AM 60.3172 24.9633 37° Northeast  Level Estimated
08:36AM 60.3172 24.9633 37° Northeast  Level Estimated
08:37AM 60.3172 24.9633 37° Northeast  Level Estimated